createdAt,value
2019-04-25T00:00:04.697Z,97605.36
2019-04-25T00:02:32.668Z,97603.73
2019-04-25T00:04:58.694Z,97603.81
2019-04-25T00:07:24.815Z,97609.90
2019-04-25T00:09:51.765Z,97619.80
2019-04-25T00:12:18.132Z,97611.88
2019-04-25T00:14:45.983Z,97501.53
2019-04-25T00:17:12.086Z,97624.73
2019-04-25T00:19:38.734Z,97625.66
2019-04-25T00:22:05.146Z,97636.86
2019-04-25T00:24:32.070Z,97639.47
2019-04-25T00:26:58.279Z,97643.52
2019-04-25T00:29:24.629Z,97651.66
2019-04-25T00:31:51.369Z,97653.84
2019-04-25T00:34:17.435Z,97664.13
2019-04-25T00:36:45.352Z,97666.76
2019-04-25T00:39:12.733Z,97666.66
2019-04-25T00:41:38.870Z,97664.61
2019-04-25T00:44:05.087Z,97675.86
2019-04-25T00:46:32.192Z,97669.88
2019-04-25T00:48:58.668Z,97671.08
2019-04-25T00:51:24.794Z,97676.83
2019-04-25T00:53:53.713Z,97671.74
2019-04-25T00:56:19.093Z,97672.62
2019-04-25T00:58:45.332Z,97682.75
2019-04-25T01:01:12.270Z,97688.70
2019-04-25T01:03:38.288Z,97679.13
2019-04-25T01:06:04.425Z,97692.70
2019-04-25T01:08:31.865Z,97690.78
2019-04-25T01:10:58.102Z,97690.57
2019-04-25T01:13:24.088Z,97694.22
2019-04-25T01:15:51.081Z,97688.00
2019-04-25T01:18:18.055Z,97692.75
2019-04-25T01:20:45.411Z,97688.36
2019-04-25T01:23:11.794Z,97693.06
2019-04-25T01:25:41.020Z,97683.27
2019-04-25T01:28:05.889Z,97691.69
2019-04-25T01:30:33.860Z,97690.03
2019-04-25T01:33:00.082Z,97695.15
2019-04-25T01:35:26.213Z,97694.45
2019-04-25T01:37:54.011Z,97693.43
2019-04-25T01:40:20.416Z,97692.16
2019-04-25T01:42:47.843Z,97694.83
2019-04-25T01:45:14.192Z,97696.81
2019-04-25T01:47:40.723Z,97690.22
2019-04-25T01:50:07.262Z,97695.12
2019-04-25T01:52:33.575Z,97699.84
2019-04-25T01:54:59.818Z,97697.98
2019-04-25T01:57:25.935Z,97695.37
2019-04-25T01:59:53.713Z,97709.23
2019-04-25T02:02:20.138Z,97715.53
2019-04-25T02:04:46.262Z,97707.02
2019-04-25T02:07:13.570Z,97705.77
2019-04-25T02:09:39.742Z,97717.44
2019-04-25T02:12:05.763Z,97721.36
2019-04-25T02:14:33.555Z,97722.33
2019-04-25T02:17:00.344Z,97724.81
2019-04-25T02:19:26.497Z,97724.94
2019-04-25T02:21:54.511Z,97721.72
2019-04-25T02:24:20.707Z,97721.94
2019-04-25T02:26:46.711Z,97727.04
2019-04-25T02:29:13.634Z,97724.92
2019-04-25T02:31:40.293Z,97730.00
2019-04-25T02:34:08.687Z,97691.95
2019-04-25T02:36:34.871Z,97733.80
2019-04-25T02:39:03.232Z,97735.06
2019-04-25T02:41:30.851Z,97740.47
2019-04-25T02:44:01.397Z,97746.05
2019-04-25T02:46:24.946Z,97750.60
2019-04-25T02:48:50.956Z,97747.73
2019-04-25T02:51:16.981Z,97751.50
2019-04-25T02:53:44.657Z,97754.89
2019-04-25T02:56:27.399Z,97750.28
2019-04-25T02:58:39.039Z,97414.97
2019-04-25T03:01:16.207Z,97765.13
2019-04-25T03:03:34.790Z,97767.25
2019-04-25T03:06:01.482Z,97767.47
2019-04-25T03:08:27.715Z,97767.66
2019-04-25T03:10:54.387Z,97775.52
2019-04-25T03:13:20.495Z,97768.68
2019-04-25T03:15:46.718Z,97774.61
2019-04-25T03:18:15.195Z,97772.96
2019-04-25T03:20:41.492Z,97771.80
2019-04-25T03:23:09.050Z,97769.05
2019-04-25T03:25:35.629Z,97777.19
2019-04-25T03:28:03.885Z,97773.61
2019-04-25T03:30:45.394Z,97741.91
2019-04-25T03:33:16.137Z,97781.23
2019-04-25T03:35:39.386Z,97773.77
2019-04-25T03:38:06.386Z,97773.09
2019-04-25T03:40:33.994Z,97777.50
2019-04-25T03:43:00.508Z,97776.34
2019-04-25T03:45:26.953Z,97785.67
2019-04-25T03:47:53.385Z,97790.91
2019-04-25T03:50:19.413Z,97800.36
2019-04-25T03:52:45.737Z,97800.38
2019-04-25T03:55:12.369Z,97806.92
2019-04-25T03:57:38.422Z,97801.03
2019-04-25T04:00:06.305Z,97792.39
2019-04-25T04:02:34.405Z,97798.59
2019-04-25T04:05:00.585Z,97801.39
2019-04-25T04:07:26.540Z,97798.23
2019-04-25T04:09:53.310Z,97809.06
2019-04-25T04:12:20.678Z,97807.11
2019-04-25T04:14:46.699Z,97811.59
2019-04-25T04:17:14.776Z,97827.48
2019-04-25T04:19:40.897Z,97827.50
2019-04-25T04:22:07.062Z,97826.84
2019-04-25T04:24:34.180Z,97829.14
2019-04-25T04:27:03.707Z,97837.63
2019-04-25T04:29:28.468Z,97836.97
2019-04-25T04:31:54.517Z,97846.44
2019-04-25T04:34:20.587Z,97863.94
2019-04-25T04:36:46.849Z,97844.58
2019-04-25T04:39:14.204Z,97841.13
2019-04-25T04:41:40.737Z,97847.11
2019-04-25T04:44:08.225Z,97847.61
2019-04-25T04:46:34.413Z,97853.02
2019-04-25T04:49:00.412Z,97854.88
2019-04-25T04:51:26.466Z,97858.73
2019-04-25T04:53:53.715Z,97865.83
2019-04-25T04:56:20.351Z,97868.59
2019-04-25T04:58:46.581Z,97881.34
2019-04-25T05:01:14.780Z,97878.20
2019-04-25T05:03:41.592Z,97879.86
2019-04-25T05:06:07.922Z,97882.33
2019-04-25T05:08:33.945Z,97891.45
2019-04-25T05:10:59.971Z,97897.87
2019-04-25T05:13:26.092Z,97889.78
2019-04-25T05:15:53.247Z,97889.55
2019-04-25T05:18:32.221Z,97896.98
2019-04-25T05:20:47.541Z,97900.60
2019-04-25T05:23:15.743Z,97897.81
2019-04-25T05:25:41.635Z,97903.90
2019-04-25T05:28:08.783Z,97893.48
2019-04-25T05:30:34.748Z,97893.78
2019-04-25T05:33:03.899Z,97889.33
2019-04-25T05:35:30.029Z,97888.00
2019-04-25T05:37:56.071Z,97895.81
2019-04-25T05:40:22.682Z,97895.43
2019-04-25T05:42:50.147Z,97888.52
2019-04-25T05:45:18.538Z,97899.15
2019-04-25T05:47:44.443Z,97898.41
2019-04-25T05:50:10.767Z,97891.58
2019-04-25T05:52:36.817Z,97902.76
2019-04-25T05:55:04.963Z,97902.80
2019-04-25T05:57:44.729Z,97903.81
2019-04-25T05:59:59.078Z,97897.33
2019-04-25T06:02:25.665Z,97893.65
2019-04-25T06:04:53.534Z,97897.10
2019-04-25T06:07:19.781Z,97890.78
2019-04-25T06:09:46.124Z,97896.80
2019-04-25T06:12:13.440Z,97901.20
2019-04-25T06:14:39.570Z,97900.69
2019-04-25T06:17:05.621Z,97899.98
2019-04-25T06:19:32.527Z,97890.45
2019-04-25T06:21:59.694Z,97887.63
2019-04-25T06:24:26.009Z,97889.87
2019-04-25T06:26:53.816Z,97892.67
2019-04-25T06:29:20.506Z,97886.77
2019-04-25T06:31:46.672Z,97888.31
2019-04-25T06:34:14.088Z,97889.27
2019-04-25T06:36:40.253Z,97889.46
2019-04-25T06:39:06.890Z,97889.05
2019-04-25T06:41:34.340Z,97895.41
2019-04-25T06:44:00.987Z,97895.31
2019-04-25T06:46:27.005Z,97888.97
2019-04-25T06:48:53.492Z,97882.77
2019-04-25T06:51:19.669Z,97882.91
2019-04-25T06:53:45.706Z,97886.72
2019-04-25T06:56:13.562Z,97887.16
2019-04-25T06:58:39.887Z,97886.81
2019-04-25T07:01:06.008Z,97880.14
2019-04-25T07:03:32.221Z,97889.56
2019-04-25T07:05:58.304Z,97891.34
2019-04-25T07:08:25.785Z,97891.30
2019-04-25T07:10:53.789Z,97892.23
2019-04-25T07:13:20.525Z,97895.04
2019-04-25T07:15:46.673Z,97889.34
2019-04-25T07:18:13.974Z,97877.20
2019-04-25T07:20:40.336Z,97872.91
2019-04-25T07:23:07.790Z,97879.23
2019-04-25T07:25:35.315Z,97876.98
2019-04-25T07:28:03.339Z,97875.81
2019-04-25T07:30:42.108Z,97875.39
2019-04-25T07:32:58.217Z,97873.03
2019-04-25T07:35:25.289Z,97864.75
2019-04-25T07:37:51.402Z,97863.80
2019-04-25T07:40:18.143Z,97870.03
2019-04-25T07:42:44.370Z,97870.30
2019-04-25T07:45:11.955Z,97877.25
2019-04-25T07:47:38.594Z,97875.09
2019-04-25T07:50:05.820Z,97868.30
2019-04-25T07:52:33.573Z,97865.69
2019-04-25T07:55:00.114Z,97866.49
2019-04-25T07:57:26.804Z,97871.23
2019-04-25T07:59:53.903Z,97865.34
2019-04-25T08:02:20.026Z,97856.22
2019-04-25T08:04:46.151Z,97861.78
2019-04-25T08:07:14.147Z,97858.80
2019-04-25T08:09:40.658Z,97862.66
2019-04-25T08:12:06.851Z,97863.42
2019-04-25T08:14:34.175Z,97859.73
2019-04-25T08:17:01.184Z,97865.28
2019-04-25T08:19:27.305Z,97872.52
2019-04-25T08:21:53.941Z,97870.80
2019-04-25T08:24:20.100Z,97872.41
2019-04-25T08:26:46.396Z,97873.65
2019-04-25T08:29:13.262Z,97878.67
2019-04-25T08:31:39.785Z,97872.38
2019-04-25T08:34:05.802Z,97871.70
2019-04-25T08:36:33.750Z,97871.50
2019-04-25T08:39:00.097Z,97870.78
2019-04-25T08:41:26.223Z,97873.78
2019-04-25T08:43:54.305Z,97868.52
2019-04-25T08:46:20.529Z,97884.65
2019-04-25T08:48:46.644Z,97878.44
2019-04-25T08:51:13.455Z,97875.27
2019-04-25T08:53:39.612Z,97873.78
2019-04-25T08:56:05.626Z,97874.08
2019-04-25T08:58:32.692Z,97867.94
2019-04-25T09:01:01.396Z,97869.36
2019-04-25T09:03:27.694Z,97865.88
2019-04-25T09:05:54.252Z,97865.06
2019-04-25T09:08:20.664Z,97870.31
2019-04-25T09:10:46.685Z,97870.45
2019-04-25T09:13:13.482Z,97867.62
2019-04-25T09:15:39.753Z,97876.76
2019-04-25T09:18:05.987Z,97873.50
2019-04-25T09:20:34.678Z,97874.66
2019-04-25T09:23:00.077Z,97876.25
2019-04-25T09:25:26.099Z,97872.91
2019-04-25T09:27:52.225Z,97873.64
2019-04-25T09:30:19.579Z,97877.30
2019-04-25T09:32:45.913Z,97853.03
2019-04-25T09:35:13.680Z,97879.53
2019-04-25T09:37:40.840Z,97878.95
2019-04-25T09:40:08.175Z,97845.48
2019-04-25T09:42:35.608Z,97879.99
2019-04-25T09:45:03.787Z,97886.58
2019-04-25T09:47:29.927Z,97882.56
2019-04-25T09:49:55.951Z,97848.72
2019-04-25T09:52:22.075Z,97880.22
2019-04-25T09:54:48.163Z,97878.72
2019-04-25T09:57:14.326Z,97777.91
2019-04-25T09:59:40.351Z,97872.14
2019-04-25T10:02:06.473Z,97864.17
2019-04-25T10:04:34.506Z,97862.31
2019-04-25T10:07:00.464Z,97856.80
2019-04-25T10:09:26.799Z,97820.19
2019-04-25T10:11:54.605Z,97848.91
2019-04-25T10:14:33.107Z,97843.00
2019-04-25T10:16:59.408Z,97833.09
2019-04-25T10:19:25.530Z,97828.70
2019-04-25T10:21:53.414Z,97841.92
2019-04-25T10:24:19.434Z,97835.27
2019-04-25T10:26:46.322Z,97832.83
2019-04-25T10:29:12.799Z,97825.52
2019-04-25T10:31:39.846Z,97835.14
2019-04-25T10:34:06.705Z,97828.77
2019-04-25T10:36:33.619Z,97822.44
2019-04-25T10:39:07.610Z,97825.05
2019-04-25T10:41:29.977Z,97830.30
2019-04-25T10:43:56.408Z,97827.66
2019-04-25T10:46:24.323Z,97815.74
2019-04-25T10:48:50.704Z,97825.05
2019-04-25T10:51:16.853Z,97817.77
2019-04-25T10:53:45.465Z,97820.11
2019-04-25T10:56:11.130Z,97817.68
2019-04-25T10:58:37.152Z,97811.62
2019-04-25T11:01:03.377Z,97814.88
2019-04-25T11:03:29.411Z,97818.06
2019-04-25T11:05:55.915Z,97810.33
2019-04-25T11:08:22.368Z,97804.30
2019-04-25T11:10:49.924Z,97803.46
2019-04-25T11:13:16.463Z,97798.80
2019-04-25T11:15:43.377Z,97786.61
2019-04-25T11:18:10.761Z,97787.70
2019-04-25T11:20:37.297Z,97782.09
2019-04-25T11:23:03.927Z,97781.81
2019-04-25T11:25:30.139Z,97778.11
2019-04-25T11:27:56.110Z,97780.03
2019-04-25T11:30:22.512Z,97776.02
2019-04-25T11:32:50.092Z,97770.89
2019-04-25T11:35:18.142Z,97766.24
2019-04-25T11:37:44.268Z,97764.27
2019-04-25T11:40:12.447Z,97760.78
2019-04-25T11:42:38.413Z,97758.80
2019-04-25T11:45:06.036Z,97751.89
2019-04-25T11:47:33.446Z,97746.84
2019-04-25T11:49:59.649Z,97743.02
2019-04-25T11:52:28.366Z,97728.88
2019-04-25T11:54:54.802Z,97733.67
2019-04-25T11:57:43.946Z,97720.80
2019-04-25T12:00:21.529Z,97723.73
2019-04-25T12:02:38.082Z,97710.62
2019-04-25T12:05:04.929Z,97705.02
2019-04-25T12:07:31.154Z,97707.91
2019-04-25T12:09:57.178Z,97709.53
2019-04-25T12:12:23.611Z,97708.38
2019-04-25T12:14:49.834Z,97692.78
2019-04-25T12:17:15.961Z,97697.11
2019-04-25T12:19:42.099Z,97689.20
2019-04-25T12:22:09.438Z,97689.86
2019-04-25T12:24:35.563Z,97693.80
2019-04-25T12:27:02.019Z,97688.91
2019-04-25T12:29:28.185Z,97683.36
2019-04-25T12:31:54.924Z,97672.34
2019-04-25T12:34:21.190Z,97680.38
2019-04-25T12:36:47.559Z,97667.04
2019-04-25T12:39:14.467Z,97639.03
2019-04-25T12:41:40.702Z,97656.74
2019-04-25T12:44:08.774Z,97655.45
2019-04-25T12:46:34.914Z,97648.55
2019-04-25T12:49:01.321Z,97654.09
2019-04-25T12:51:27.551Z,97656.90
2019-04-25T12:53:54.925Z,97651.00
2019-04-25T12:56:24.595Z,97649.14
2019-04-25T12:58:49.511Z,97628.59
2019-04-25T13:01:15.643Z,97635.57
2019-04-25T13:03:41.967Z,97630.77
2019-04-25T13:06:08.090Z,97616.94
2019-04-25T13:08:34.729Z,97614.18
2019-04-25T13:11:07.917Z,97613.58
2019-04-25T13:13:28.925Z,97609.41
2019-04-25T13:15:55.254Z,97608.84
2019-04-25T13:18:21.381Z,97612.10
2019-04-25T13:20:47.401Z,97610.98
2019-04-25T13:23:14.416Z,97602.06
2019-04-25T13:25:40.675Z,97597.19
2019-04-25T13:28:08.354Z,97594.23
2019-04-25T13:30:34.864Z,97599.77
2019-04-25T13:33:01.804Z,97589.67
2019-04-25T13:35:27.954Z,97599.34
2019-04-25T13:37:54.065Z,97588.16
2019-04-25T13:40:21.616Z,97585.95
2019-04-25T13:42:47.851Z,97586.33
2019-04-25T13:45:14.372Z,97592.47
2019-04-25T13:47:40.607Z,97581.53
2019-04-25T13:50:07.345Z,97569.89
2019-04-25T13:52:35.796Z,97579.05
2019-04-25T13:55:03.683Z,97571.36
2019-04-25T13:57:30.054Z,97572.05
2019-04-25T13:59:56.054Z,97565.75
2019-04-25T14:02:22.739Z,97559.70
2019-04-25T14:04:48.917Z,97550.27
2019-04-25T14:07:15.045Z,97536.69
2019-04-25T14:09:41.067Z,97545.59
2019-04-25T14:12:07.397Z,97541.48
2019-04-25T14:14:35.833Z,97536.72
2019-04-25T14:17:02.991Z,97537.78
2019-04-25T14:19:29.665Z,97528.19
2019-04-25T14:21:55.685Z,97525.80
2019-04-25T14:24:24.949Z,97530.48
2019-04-25T14:26:50.700Z,97526.72
2019-04-25T14:29:16.825Z,97520.37
2019-04-25T14:31:47.953Z,97512.02
2019-04-25T14:34:10.919Z,97513.02
2019-04-25T14:36:36.946Z,97513.22
2019-04-25T14:39:05.220Z,97524.62
2019-04-25T14:41:33.597Z,97521.12
2019-04-25T14:43:59.825Z,97514.46
2019-04-25T14:46:26.560Z,97517.58
2019-04-25T14:48:53.006Z,97514.67
2019-04-25T14:51:19.123Z,97502.00
2019-04-25T14:53:45.349Z,97494.56
2019-04-25T14:56:11.371Z,97498.84
2019-04-25T14:58:37.504Z,97498.42
2019-04-25T15:01:03.828Z,97496.69
2019-04-25T15:04:25.954Z,97495.42
2019-04-25T15:06:52.034Z,97500.70
2019-04-25T15:09:18.054Z,97485.23
2019-04-25T15:11:44.131Z,97487.38
2019-04-25T15:14:10.027Z,97490.44
2019-04-25T15:16:35.922Z,97483.75
2019-04-25T15:19:01.901Z,97477.88
2019-04-25T15:21:28.103Z,97483.98
2019-04-25T15:24:00.028Z,97474.61
2019-04-25T15:26:21.955Z,97478.80
2019-04-25T15:28:47.930Z,97474.52
2019-04-25T15:31:14.002Z,97472.53
2019-04-25T15:33:39.986Z,97465.97
2019-04-25T15:36:06.191Z,97469.70
2019-04-25T15:38:32.089Z,97467.47
2019-04-25T15:40:59.354Z,97467.56
2019-04-25T15:43:26.232Z,97473.20
2019-04-25T15:45:52.280Z,97471.85
2019-04-25T15:48:18.267Z,97469.40
2019-04-25T15:50:44.171Z,97464.95
2019-04-25T15:53:11.216Z,97464.84
2019-04-25T15:55:37.113Z,97460.17
2019-04-25T15:58:03.378Z,97458.30
2019-04-25T16:00:30.637Z,97460.12
2019-04-25T16:02:56.835Z,97452.95
2019-04-25T16:05:22.832Z,97451.80
2019-04-25T16:07:48.976Z,97453.30
2019-04-25T16:10:15.178Z,97451.08
2019-04-25T16:12:41.198Z,97451.88
2019-04-25T16:15:07.475Z,97449.33
2019-04-25T16:17:33.608Z,97448.70
2019-04-25T16:19:59.626Z,97455.36
2019-04-25T16:22:25.533Z,97451.53
2019-04-25T16:24:51.462Z,97452.23
2019-04-25T16:27:17.398Z,97447.77
2019-04-25T16:29:43.346Z,97313.27
2019-04-25T16:32:20.070Z,97443.15
2019-04-25T16:34:37.741Z,97443.52
2019-04-25T16:37:03.731Z,97444.12
2019-04-25T16:39:29.772Z,97441.30
2019-04-25T16:41:55.872Z,97412.74
2019-04-25T16:44:21.942Z,97435.02
2019-04-25T16:46:48.331Z,97430.61
2019-04-25T16:49:15.492Z,97433.38
2019-04-25T16:51:42.376Z,97428.16
2019-04-25T16:54:08.344Z,97425.81
2019-04-25T16:56:34.557Z,97425.67
2019-04-25T16:59:00.808Z,97424.40
2019-04-25T17:01:26.784Z,97425.45
2019-04-25T17:03:52.938Z,97421.20
2019-04-25T17:06:18.935Z,97423.45
2019-04-25T17:08:45.054Z,97420.03
2019-04-25T17:11:11.180Z,97421.17
2019-04-25T17:13:37.925Z,97417.23
2019-04-25T17:16:04.180Z,97419.09
2019-04-25T17:18:30.833Z,97417.52
2019-04-25T17:20:56.808Z,97424.18
2019-04-25T17:23:22.710Z,97428.70
2019-04-25T17:25:48.769Z,97434.11
2019-04-25T17:28:14.930Z,97427.42
2019-04-25T17:30:40.951Z,97435.98
2019-04-25T17:33:06.955Z,97435.19
2019-04-25T17:35:33.577Z,97439.50
2019-04-25T17:37:59.730Z,97441.37
2019-04-25T17:40:25.739Z,97436.01
2019-04-25T17:42:51.781Z,97436.81
2019-04-25T17:45:17.799Z,97444.30
2019-04-25T17:47:54.410Z,97412.92
2019-04-25T17:50:13.328Z,97443.69
2019-04-25T17:52:39.333Z,97443.88
2019-04-25T17:55:05.476Z,97443.31
2019-04-25T17:57:32.980Z,97447.56
2019-04-25T17:59:58.945Z,97442.99
2019-04-25T18:02:24.965Z,97445.38
2019-04-25T18:04:50.866Z,97448.87
2019-04-25T18:07:16.900Z,97446.75
2019-04-25T18:09:43.465Z,97444.86
2019-04-25T18:12:09.654Z,97446.23
2019-04-25T18:14:36.392Z,97449.15
2019-04-25T18:17:02.550Z,97451.81
2019-04-25T18:19:29.795Z,97450.60
2019-04-25T18:21:55.819Z,97453.16
2019-04-25T18:24:21.889Z,97450.03
2019-04-25T18:26:47.881Z,97457.19
2019-04-25T18:29:13.944Z,97452.25
2019-04-25T18:31:39.896Z,97451.38
2019-04-25T18:34:05.795Z,97448.06
2019-04-25T18:36:32.459Z,97452.67
2019-04-25T18:38:58.348Z,97454.25
2019-04-25T18:41:25.496Z,97457.79
2019-04-25T18:43:51.520Z,97468.48
2019-04-25T18:46:17.692Z,97460.27
2019-04-25T18:48:43.765Z,97456.69
2019-04-25T18:51:10.972Z,97462.59
2019-04-25T18:53:37.962Z,97461.28
2019-04-25T18:56:04.424Z,97462.98
2019-04-25T18:58:30.331Z,97461.39
2019-04-25T19:00:56.283Z,97468.82
2019-04-25T19:03:24.528Z,97467.02
2019-04-25T19:05:51.516Z,97468.97
2019-04-25T19:08:17.821Z,97475.09
2019-04-25T19:10:45.021Z,97476.11
2019-04-25T19:13:12.822Z,97471.91
2019-04-25T19:15:40.312Z,97468.78
2019-04-25T19:18:07.102Z,97473.30
2019-04-25T19:20:33.121Z,97467.11
2019-04-25T19:22:59.285Z,97470.36
2019-04-25T19:25:25.372Z,97471.72
2019-04-25T19:27:51.472Z,97465.44
2019-04-25T19:30:17.487Z,97459.23
2019-04-25T19:32:43.387Z,97468.61
2019-04-25T19:35:09.711Z,97468.28
2019-04-25T19:37:35.611Z,97466.27
2019-04-25T19:40:01.662Z,97468.50
2019-04-25T19:42:27.983Z,97465.92
2019-04-25T19:44:54.987Z,97460.47
2019-04-25T19:47:20.945Z,97457.38
2019-04-25T19:49:47.654Z,97460.55
2019-04-25T19:52:13.705Z,97460.77
2019-04-25T19:54:39.603Z,97463.64
2019-04-25T19:57:05.561Z,97462.31
2019-04-25T19:59:31.473Z,97469.11
2019-04-25T20:01:57.847Z,97464.64
2019-04-25T20:04:25.065Z,97460.55
2019-04-25T20:06:55.112Z,97468.26
2019-04-25T20:09:21.627Z,97488.08
2019-04-25T20:11:47.918Z,97474.98
2019-04-25T20:14:14.163Z,97319.98
2019-04-25T20:16:40.736Z,97467.30
2019-04-25T20:19:09.389Z,97463.56
2019-04-25T20:21:35.015Z,97467.44
2019-04-25T20:24:01.158Z,97455.92
2019-04-25T20:26:27.217Z,97458.80
2019-04-25T20:28:54.139Z,97462.37
2019-04-25T20:31:20.044Z,97456.34
2019-04-25T20:33:46.850Z,97445.05
2019-04-25T20:36:17.857Z,97451.22
2019-04-25T20:38:40.855Z,97446.34
2019-04-25T20:41:07.023Z,97446.64
2019-04-25T20:43:33.305Z,97451.43
2019-04-25T20:45:59.252Z,97449.72
2019-04-25T20:48:25.250Z,97448.39
2019-04-25T20:50:52.391Z,97448.44
2019-04-25T20:53:18.628Z,97447.49
2019-04-25T20:55:44.584Z,97452.17
2019-04-25T20:58:10.672Z,97457.81
2019-04-25T21:00:40.986Z,97453.41
2019-04-25T21:03:08.288Z,97455.33
2019-04-25T21:05:34.238Z,97447.11
2019-04-25T21:08:00.401Z,97450.92
2019-04-25T21:10:26.418Z,97452.50
2019-04-25T21:12:53.660Z,97451.52
2019-04-25T21:15:19.787Z,97453.99
2019-04-25T21:17:46.038Z,97448.45
2019-04-25T21:20:12.101Z,97298.45
2019-04-25T21:22:38.172Z,97450.84
2019-04-25T21:25:05.726Z,97448.30
2019-04-25T21:27:31.939Z,97475.61
2019-04-25T21:29:57.884Z,97442.58
2019-04-25T21:32:23.829Z,97439.28
2019-04-25T21:34:50.749Z,97432.48
2019-04-25T21:37:17.995Z,97428.23
2019-04-25T21:39:45.831Z,97428.62
2019-04-25T21:42:13.991Z,97424.64
2019-04-25T21:44:40.453Z,97417.13
2019-04-25T21:47:07.047Z,97425.84
2019-04-25T21:49:33.624Z,97426.83
2019-04-25T21:51:59.527Z,97421.34
2019-04-25T21:54:25.624Z,97419.16
2019-04-25T21:56:51.723Z,97419.66
2019-04-25T21:59:17.973Z,97419.94
2019-04-25T22:01:44.010Z,97420.70
2019-04-25T22:04:10.491Z,97419.33
2019-04-25T22:06:36.840Z,97420.92
2019-04-25T22:09:06.069Z,97414.70
2019-04-25T22:11:32.684Z,97415.27
2019-04-25T22:13:59.515Z,97416.76
2019-04-25T22:16:25.690Z,97405.51
2019-04-25T22:18:51.825Z,97414.41
2019-04-25T22:21:18.030Z,97411.76
2019-04-25T22:23:44.263Z,97417.95
2019-04-25T22:26:10.282Z,97420.13
2019-04-25T22:28:36.768Z,97425.59
2019-04-25T22:31:03.467Z,97429.35
2019-04-25T22:33:29.694Z,97438.58
2019-04-25T22:35:55.612Z,97466.03
2019-04-25T22:38:22.656Z,97494.72
2019-04-25T22:40:48.642Z,97472.97
2019-04-25T22:43:15.084Z,97489.12
2019-04-25T22:45:41.627Z,97478.91
2019-04-25T22:48:07.784Z,97472.39
2019-04-25T22:50:34.763Z,97478.52
2019-04-25T22:53:01.207Z,97482.25
2019-04-25T22:55:28.418Z,97490.59
2019-04-25T22:57:54.516Z,97499.02
2019-04-25T23:00:20.687Z,97498.91
2019-04-25T23:02:48.787Z,97512.86
2019-04-25T23:05:16.297Z,97505.06
2019-04-25T23:07:42.704Z,97510.81
2019-04-25T23:10:09.357Z,97524.45
2019-04-25T23:12:36.315Z,97525.47
2019-04-25T23:15:05.121Z,97522.30
2019-04-25T23:17:32.140Z,97529.64
2019-04-25T23:19:58.272Z,97534.69
2019-04-25T23:22:24.163Z,97532.91
2019-04-25T23:24:50.577Z,97538.66
2019-04-25T23:27:16.567Z,97542.06
2019-04-25T23:29:42.818Z,97543.81
2019-04-25T23:32:09.131Z,97542.03
2019-04-25T23:34:35.250Z,97540.70
2019-04-25T23:37:01.152Z,97543.53
2019-04-25T23:39:27.311Z,97555.78
2019-04-25T23:41:53.221Z,97552.41
2019-04-25T23:44:19.328Z,97543.09
2019-04-25T23:46:45.536Z,97543.09
2019-04-25T23:49:12.648Z,97555.14
2019-04-25T23:51:38.712Z,97563.81
2019-04-25T23:54:04.660Z,97562.36
2019-04-25T23:56:30.620Z,97529.32
2019-04-25T23:58:56.920Z,97553.13
